Time;durP1;ratioP1;P1;durP2;ratioP2;P2;SDS_P1;SDS_P2;PMS_P1;PMS_P2;Temp;Humidity;BMP_temperature;BMP_pressure;BME280_temperature;BME280_humidity;BME280_pressure;Samples;Min_cycle;Max_cycle;Signal;HPM_P1;HPM_P2
2021/12/30 00:00:34;;;;;;;;;;;21.30;46.80;;;;;;1537514;77;1142;-66
2021/12/30 00:02:36;;;;;;;;;;;21.20;46.70;;;;;;1537688;77;633;-66
2021/12/30 00:04:38;;;;;;;;;;;21.30;46.80;;;;;;1537710;77;784;-67
2021/12/30 00:06:40;;;;;;;;;;;21.30;46.80;;;;;;1537562;77;639;-67
2021/12/30 00:08:42;;;;;;;;;;;21.30;46.80;;;;;;1537533;77;1904;-66
2021/12/30 00:10:44;;;;;;;;;;;21.20;46.70;;;;;;1537643;77;1155;-66
2021/12/30 00:12:47;;;;;;;;;;;21.20;46.70;;;;;;1537723;77;769;-66
2021/12/30 00:14:49;;;;;;;;;;;21.20;46.70;;;;;;1537653;77;639;-65
2021/12/30 00:16:51;;;;;;;;;;;21.20;46.70;;;;;;1537627;77;788;-66
2021/12/30 00:18:52;;;;;;;;;;;21.30;46.80;;;;;;1537618;77;774;-66
2021/12/30 00:20:54;;;;;;;;;;;21.30;46.80;;;;;;1537508;77;1075;-66
2021/12/30 00:22:56;;;;;;;;;;;21.30;46.90;;;;;;1537706;77;771;-68
2021/12/30 00:24:58;;;;;;;;;;;21.30;46.80;;;;;;1537700;76;746;-66
2021/12/30 00:27:00;;;;;;;;;;;21.20;46.70;;;;;;1537603;77;1937;-66
2021/12/30 00:29:02;;;;;;;;;;;21.20;46.80;;;;;;1537741;77;703;-66
2021/12/30 00:31:04;;;;;;;;;;;21.30;46.80;;;;;;1537534;77;1155;-66
2021/12/30 00:33:05;;;;;;;;;;;21.30;46.80;;;;;;1537605;77;712;-66
2021/12/30 00:35:08;;;;;;;;;;;21.30;46.80;;;;;;1537662;77;651;-66
2021/12/30 00:37:10;;;;;;;;;;;21.20;46.60;;;;;;1537511;77;672;-66
2021/12/30 00:39:11;;;;;;;;;;;21.30;46.80;;;;;;1537738;77;659;-66
2021/12/30 00:41:13;;;;;;;;;;;21.30;46.80;;;;;;1537573;77;1106;-68
2021/12/30 00:43:15;;;;;;;;;;;21.30;46.80;;;;;;1537680;77;722;-66
2021/12/30 00:45:17;;;;;;;;;;;21.20;46.70;;;;;;1537606;77;793;-66
2021/12/30 00:47:19;;;;;;;;;;;21.20;46.70;;;;;;1537557;77;1939;-66
2021/12/30 00:49:21;;;;;;;;;;;21.20;46.70;;;;;;1537592;77;789;-66
2021/12/30 00:51:23;;;;;;;;;;;21.20;46.80;;;;;;1537736;77;1143;-67
2021/12/30 00:53:24;;;;;;;;;;;21.30;46.90;;;;;;1537650;77;655;-66
2021/12/30 00:55:26;;;;;;;;;;;21.30;46.80;;;;;;1537631;77;777;-66
2021/12/30 00:57:28;;;;;;;;;;;21.20;46.70;;;;;;1537579;77;796;-68
2021/12/30 00:59:30;;;;;;;;;;;21.20;46.70;;;;;;1535214;77;858;-65
2021/12/30 01:01:32;;;;;;;;;;;21.30;46.80;;;;;;1535287;77;1142;-66
2021/12/30 01:03:34;;;;;;;;;;;21.30;46.90;;;;;;1535197;77;781;-66
2021/12/30 01:05:36;;;;;;;;;;;21.20;46.80;;;;;;1535214;77;721;-66
2021/12/30 01:07:38;;;;;;;;;;;21.20;46.80;;;;;;1535162;77;1935;-64
2021/12/30 01:09:40;;;;;;;;;;;21.30;46.90;;;;;;1535296;77;725;-66
2021/12/30 01:11:41;;;;;;;;;;;21.20;46.80;;;;;;1535257;77;1162;-66
2021/12/30 01:13:45;;;;;;;;;;;21.20;46.80;;;;;;1535194;77;747;-67
2021/12/30 01:15:57;;;;;;;;;;;21.20;46.80;;;;;;1535197;77;2016;-66
2021/12/30 01:17:56;;;;;;;;;;;21.30;46.90;;;;;;1533649;77;1585;-66
2021/12/30 01:19:54;;;;;;;;;;;21.20;46.80;;;;;;1534402;77;1621;-66
2021/12/30 01:21:56;;;;;;;;;;;21.20;46.80;;;;;;1535312;77;1126;-67
2021/12/30 01:23:58;;;;;;;;;;;21.20;46.80;;;;;;1535208;77;740;-68
2021/12/30 01:26:00;;;;;;;;;;;21.20;46.80;;;;;;1535225;77;780;-66
2021/12/30 01:28:01;;;;;;;;;;;21.30;46.90;;;;;;1535116;77;1947;-66
2021/12/30 01:30:04;;;;;;;;;;;21.30;46.90;;;;;;1535314;77;730;-65
2021/12/30 01:32:06;;;;;;;;;;;21.30;46.80;;;;;;1535145;77;1135;-66
2021/12/30 01:34:08;;;;;;;;;;;21.30;46.90;;;;;;1535210;77;797;-66
2021/12/30 01:36:10;;;;;;;;;;;21.30;46.90;;;;;;1535244;77;690;-66
2021/12/30 01:38:15;;;;;;;;;;;21.30;46.90;;;;;;1535188;77;708;-66
2021/12/30 01:40:17;;;;;;;;;;;21.30;46.80;;;;;;1534956;77;1678;-65
2021/12/30 01:42:19;;;;;;;;;;;21.30;46.90;;;;;;1535174;77;1118;-68
2021/12/30 01:44:21;;;;;;;;;;;21.30;46.90;;;;;;1535124;77;814;-68
2021/12/30 01:46:23;;;;;;;;;;;21.30;46.90;;;;;;1535124;77;763;-66
2021/12/30 01:48:25;;;;;;;;;;;21.20;46.80;;;;;;1535117;77;1944;-67
2021/12/30 01:50:27;;;;;;;;;;;21.20;46.80;;;;;;1535286;77;776;-66
2021/12/30 01:52:29;;;;;;;;;;;21.20;46.80;;;;;;1535132;77;1150;-66
2021/12/30 01:54:30;;;;;;;;;;;21.30;46.90;;;;;;1535208;77;730;-66
2021/12/30 01:56:32;;;;;;;;;;;21.30;46.90;;;;;;1535202;77;795;-66
2021/12/30 01:58:36;;;;;;;;;;;21.30;46.90;;;;;;1535252;77;635;-68
2021/12/30 02:00:38;;;;;;;;;;;21.20;46.70;;;;;;1513878;78;1164;-65
2021/12/30 02:02:40;;;;;;;;;;;21.20;46.80;;;;;;1535202;77;762;-66
2021/12/30 02:04:42;;;;;;;;;;;21.30;46.90;;;;;;1536088;77;792;-66
2021/12/30 02:06:44;;;;;;;;;;;21.30;46.90;;;;;;1537562;77;696;-66
2021/12/30 02:08:45;;;;;;;;;;;21.30;46.90;;;;;;1537623;77;1909;-66
2021/12/30 02:10:48;;;;;;;;;;;21.30;46.90;;;;;;1537687;77;1170;-66
2021/12/30 02:12:50;;;;;;;;;;;21.20;46.80;;;;;;1537713;77;616;-66
2021/12/30 02:14:51;;;;;;;;;;;21.20;46.80;;;;;;1537608;77;740;-66
2021/12/30 02:16:53;;;;;;;;;;;21.20;46.80;;;;;;1537672;77;652;-66
2021/12/30 02:18:55;;;;;;;;;;;21.20;46.80;;;;;;1537654;77;719;-68
2021/12/30 02:20:58;;;;;;;;;;;21.30;46.90;;;;;;1537732;77;1134;-69
2021/12/30 02:23:00;;;;;;;;;;;21.20;46.80;;;;;;1537673;77;700;-66
2021/12/30 02:25:03;;;;;;;;;;;21.20;46.80;;;;;;1537524;77;685;-66
2021/12/30 02:27:05;;;;;;;;;;;21.20;46.80;;;;;;1537653;77;793;-66
2021/12/30 02:29:07;;;;;;;;;;;21.20;46.80;;;;;;1537532;77;1928;-66
2021/12/30 02:31:11;;;;;;;;;;;21.20;46.80;;;;;;1524250;76;1156;-65
2021/12/30 02:33:13;;;;;;;;;;;21.20;46.90;;;;;;1545370;76;738;-66
2021/12/30 02:35:15;;;;;;;;;;;21.20;46.80;;;;;;1548982;76;721;-66
2021/12/30 02:37:17;;;;;;;;;;;21.20;46.80;;;;;;1552227;76;743;-67
2021/12/30 02:39:22;;;;;;;;;;;21.20;46.80;;;;;;1552127;76;736;-66
2021/12/30 02:41:23;;;;;;;;;;;21.20;46.80;;;;;;1551712;76;1667;-67
2021/12/30 02:43:27;;;;;;;;;;;21.30;46.90;;;;;;1552157;76;770;-66
2021/12/30 02:45:28;;;;;;;;;;;21.30;47.00;;;;;;1550792;76;1662;-66
2021/12/30 02:47:32;;;;;;;;;;;21.30;47.00;;;;;;1552228;76;788;-68
2021/12/30 02:49:34;;;;;;;;;;;21.20;46.80;;;;;;1551094;76;1931;-66
2021/12/30 02:51:36;;;;;;;;;;;21.30;47.00;;;;;;1552155;76;1181;-66
2021/12/30 02:53:38;;;;;;;;;;;21.20;46.90;;;;;;1552278;76;712;-66
2021/12/30 02:55:40;;;;;;;;;;;21.20;46.80;;;;;;1552081;76;724;-68
2021/12/30 02:57:42;;;;;;;;;;;21.20;46.90;;;;;;1550815;76;772;-68
2021/12/30 02:59:44;;;;;;;;;;;21.30;47.00;;;;;;1537713;77;915;-66
2021/12/30 03:01:46;;;;;;;;;;;21.30;46.90;;;;;;1537650;77;1083;-66
2021/12/30 03:03:48;;;;;;;;;;;21.20;46.80;;;;;;1537708;77;720;-67
2021/12/30 03:05:50;;;;;;;;;;;21.20;46.80;;;;;;1537447;77;788;-68
2021/12/30 03:07:52;;;;;;;;;;;21.20;46.80;;;;;;1537660;76;788;-68
2021/12/30 03:09:54;;;;;;;;;;;21.30;47.00;;;;;;1537628;77;1976;-66
2021/12/30 03:11:56;;;;;;;;;;;21.20;46.80;;;;;;1537671;77;1072;-66
2021/12/30 03:14:00;;;;;;;;;;;21.20;46.80;;;;;;1537620;77;779;-66
2021/12/30 03:16:03;;;;;;;;;;;21.20;46.80;;;;;;1537495;77;2042;-66
2021/12/30 03:18:05;;;;;;;;;;;21.20;46.80;;;;;;1537600;77;690;-66
2021/12/30 03:20:09;;;;;;;;;;;21.20;46.80;;;;;;1537638;77;736;-68
2021/12/30 03:22:12;;;;;;;;;;;21.20;46.80;;;;;;1537532;77;1119;-66
2021/12/30 03:24:14;;;;;;;;;;;21.20;46.90;;;;;;1537595;77;705;-66
2021/12/30 03:26:15;;;;;;;;;;;21.20;46.90;;;;;;1537680;77;781;-68
2021/12/30 03:28:17;;;;;;;;;;;21.20;46.80;;;;;;1537640;77;1940;-66
2021/12/30 03:30:19;;;;;;;;;;;21.20;46.80;;;;;;1537743;77;737;-67
2021/12/30 03:32:21;;;;;;;;;;;21.30;47.00;;;;;;1537698;77;1125;-66
2021/12/30 03:34:23;;;;;;;;;;;21.20;46.80;;;;;;1537599;77;708;-66
2021/12/30 03:36:25;;;;;;;;;;;21.30;46.90;;;;;;1537631;77;781;-66
2021/12/30 03:38:31;;;;;;;;;;;21.30;47.00;;;;;;1537542;77;627;-66
2021/12/30 03:40:33;;;;;;;;;;;21.30;46.90;;;;;;1537727;77;1075;-66
2021/12/30 03:42:35;;;;;;;;;;;21.30;47.00;;;;;;1537701;77;782;-66
2021/12/30 03:44:37;;;;;;;;;;;21.30;47.00;;;;;;1537675;77;745;-69
2021/12/30 03:46:38;;;;;;;;;;;21.30;46.90;;;;;;1537551;77;730;-66
2021/12/30 03:48:43;;;;;;;;;;;21.30;47.00;;;;;;1537550;77;1940;-66
2021/12/30 03:50:45;;;;;;;;;;;21.30;47.00;;;;;;1537363;77;1671;-66
2021/12/30 03:52:48;;;;;;;;;;;21.30;46.90;;;;;;1537596;77;768;-66
2021/12/30 03:54:50;;;;;;;;;;;21.30;46.90;;;;;;1536822;77;1768;-66
2021/12/30 03:56:52;;;;;;;;;;;21.30;47.00;;;;;;1537673;76;552;-66
2021/12/30 03:58:54;;;;;;;;;;;21.30;47.00;;;;;;1535845;77;793;-68
2021/12/30 04:00:55;;;;;;;;;;;21.30;46.90;;;;;;1535124;77;1149;-66
2021/12/30 04:02:57;;;;;;;;;;;21.30;46.90;;;;;;1513951;78;1178;-66
2021/12/30 04:04:59;;;;;;;;;;;21.30;46.90;;;;;;1535268;77;716;-66
2021/12/30 04:07:01;;;;;;;;;;;21.30;46.90;;;;;;1535147;77;785;-67
2021/12/30 04:09:05;;;;;;;;;;;21.30;46.90;;;;;;1535064;77;1953;-66
2021/12/30 04:11:06;;;;;;;;;;;21.30;46.90;;;;;;1535108;77;1645;-67
2021/12/30 04:13:08;;;;;;;;;;;21.30;46.90;;;;;;1535101;77;791;-66
2021/12/30 04:15:10;;;;;;;;;;;21.30;46.90;;;;;;1535153;77;733;-66
2021/12/30 04:17:12;;;;;;;;;;;21.40;46.90;;;;;;1535164;77;729;-66
2021/12/30 04:19:14;;;;;;;;;;;21.30;46.90;;;;;;1535124;77;735;-66
2021/12/30 04:21:17;;;;;;;;;;;21.30;46.90;;;;;;1535253;77;1119;-66
2021/12/30 04:23:19;;;;;;;;;;;21.30;46.90;;;;;;1535085;77;776;-66
2021/12/30 04:25:20;;;;;;;;;;;21.30;46.90;;;;;;1535163;77;702;-66
2021/12/30 04:27:22;;;;;;;;;;;21.30;46.90;;;;;;1535232;77;736;-66
2021/12/30 04:29:24;;;;;;;;;;;21.30;46.90;;;;;;1535057;77;1932;-67
2021/12/30 04:31:26;;;;;;;;;;;21.40;46.90;;;;;;1535113;77;1259;-66
2021/12/30 04:33:28;;;;;;;;;;;21.30;46.90;;;;;;1535148;77;820;-67
2021/12/30 04:35:30;;;;;;;;;;;21.30;46.90;;;;;;1535248;77;781;-68
2021/12/30 04:37:32;;;;;;;;;;;21.30;46.90;;;;;;1535179;77;725;-66
2021/12/30 04:39:34;;;;;;;;;;;21.30;46.90;;;;;;1535126;77;789;-66
2021/12/30 04:41:35;;;;;;;;;;;21.30;46.90;;;;;;1553049;71;2091;-61
2021/12/30 04:43:39;;;;;;;;;;;21.30;46.90;;;;;;1624875;73;699;-61
2021/12/30 04:45:42;;;;;;;;;;;21.40;46.90;;;;;;1624845;73;707;-63
2021/12/30 04:47:44;;;;;;;;;;;21.30;46.90;;;;;;1624920;73;726;-61
2021/12/30 04:49:49;;;;;;;;;;;21.30;46.90;;;;;;1624812;73;1932;-61
2021/12/30 04:51:50;;;;;;;;;;;21.30;46.80;;;;;;1634960;72;1178;-61
2021/12/30 04:53:52;;;;;;;;;;;21.40;46.80;;;;;;1654799;72;779;-61
2021/12/30 04:55:54;;;;;;;;;;;21.40;46.80;;;;;;1654634;72;774;-61
2021/12/30 04:57:56;;;;;;;;;;;21.30;46.80;;;;;;1648641;72;749;-61
2021/12/30 04:59:58;;;;;;;;;;;21.30;46.90;;;;;;1625228;73;717;-61
2021/12/30 05:02:02;;;;;;;;;;;21.40;46.90;;;;;;1625362;73;1157;-62
2021/12/30 05:04:03;;;;;;;;;;;21.30;46.90;;;;;;1625210;73;2057;-61
2021/12/30 05:06:05;;;;;;;;;;;21.40;46.90;;;;;;1625018;73;733;-61
2021/12/30 05:08:07;;;;;;;;;;;21.30;46.90;;;;;;1625262;73;722;-61
2021/12/30 05:10:09;;;;;;;;;;;21.30;46.90;;;;;;1625030;73;1940;-61
2021/12/30 05:12:11;;;;;;;;;;;21.30;46.90;;;;;;1625110;73;1125;-62
2021/12/30 05:14:13;;;;;;;;;;;21.30;46.90;;;;;;1625237;73;611;-62
2021/12/30 05:16:16;;;;;;;;;;;21.30;46.90;;;;;;1625163;72;798;-63
2021/12/30 05:18:19;;;;;;;;;;;21.30;46.90;;;;;;1625148;73;785;-61
2021/12/30 05:20:21;;;;;;;;;;;21.40;46.90;;;;;;1625079;72;757;-63
2021/12/30 05:22:23;;;;;;;;;;;21.40;46.90;;;;;;1625236;73;1129;-61
2021/12/30 05:24:25;;;;;;;;;;;21.40;46.90;;;;;;1625286;72;768;-61
2021/12/30 05:26:28;;;;;;;;;;;21.30;46.90;;;;;;1624990;73;729;-61
2021/12/30 05:28:29;;;;;;;;;;;21.30;46.90;;;;;;1625148;73;765;-62
2021/12/30 05:30:31;;;;;;;;;;;21.30;46.90;;;;;;1625111;73;1944;-64
2021/12/30 05:32:34;;;;;;;;;;;21.30;46.90;;;;;;1625096;73;1142;-61
2021/12/30 05:34:36;;;;;;;;;;;21.40;46.90;;;;;;1625157;72;752;-62
2021/12/30 05:36:38;;;;;;;;;;;21.30;47.00;;;;;;1625035;73;791;-62
2021/12/30 05:38:40;;;;;;;;;;;21.30;46.90;;;;;;1625232;73;779;-63
2021/12/30 05:40:42;;;;;;;;;;;21.30;47.00;;;;;;1625091;73;794;-61
2021/12/30 05:42:44;;;;;;;;;;;21.30;47.00;;;;;;1625199;73;1126;-61
2021/12/30 05:44:45;;;;;;;;;;;21.30;47.00;;;;;;1625311;73;779;-61
2021/12/30 05:46:47;;;;;;;;;;;21.40;46.90;;;;;;1625196;73;764;-61
2021/12/30 05:48:49;;;;;;;;;;;21.30;46.90;;;;;;1625253;73;928;-61
2021/12/30 05:50:51;;;;;;;;;;;21.40;46.90;;;;;;1625293;72;1932;-61
2021/12/30 05:52:53;;;;;;;;;;;21.30;46.90;;;;;;1625191;73;1162;-63
2021/12/30 05:54:55;;;;;;;;;;;21.30;47.00;;;;;;1625214;73;741;-61
2021/12/30 05:56:57;;;;;;;;;;;21.40;47.00;;;;;;1625241;73;718;-61
2021/12/30 05:58:59;;;;;;;;;;;21.30;47.00;;;;;;1625360;73;800;-61
2021/12/30 06:01:00;;;;;;;;;;;21.30;47.00;;;;;;1625316;73;717;-61
2021/12/30 06:03:02;;;;;;;;;;;21.40;46.90;;;;;;1625261;73;1065;-61
2021/12/30 06:05:04;;;;;;;;;;;21.40;46.90;;;;;;1640597;72;762;-61
2021/12/30 06:07:06;;;;;;;;;;;21.40;46.90;;;;;;1652180;72;784;-61
2021/12/30 06:09:08;;;;;;;;;;;21.30;46.90;;;;;;1652386;72;1943;-62
2021/12/30 06:11:10;;;;;;;;;;;21.30;46.90;;;;;;1652270;72;782;-61
2021/12/30 06:13:12;;;;;;;;;;;21.40;46.90;;;;;;1652291;72;783;-61
2021/12/30 06:15:14;;;;;;;;;;;21.40;46.90;;;;;;1652127;72;768;-61
2021/12/30 06:17:16;;;;;;;;;;;21.40;46.90;;;;;;1652233;72;778;-61
2021/12/30 06:19:18;;;;;;;;;;;21.40;46.90;;;;;;1652217;72;723;-61
2021/12/30 06:21:20;;;;;;;;;;;21.30;46.90;;;;;;1652307;72;1101;-61
2021/12/30 06:23:21;;;;;;;;;;;21.40;47.00;;;;;;1652266;72;567;-61
2021/12/30 06:25:23;;;;;;;;;;;21.30;46.90;;;;;;1652125;72;722;-62
2021/12/30 06:27:25;;;;;;;;;;;21.30;46.90;;;;;;1652242;72;711;-64
2021/12/30 06:29:27;;;;;;;;;;;21.30;47.00;;;;;;1652215;72;1958;-61
2021/12/30 06:31:29;;;;;;;;;;;21.30;46.90;;;;;;1652278;72;1145;-61
2021/12/30 06:33:31;;;;;;;;;;;21.30;46.90;;;;;;1652234;72;705;-61
2021/12/30 06:35:34;;;;;;;;;;;21.40;46.90;;;;;;1652219;72;792;-61
2021/12/30 06:37:36;;;;;;;;;;;21.40;46.90;;;;;;1652115;72;724;-63
2021/12/30 06:39:39;;;;;;;;;;;21.30;47.00;;;;;;1652209;72;728;-62
2021/12/30 06:41:41;;;;;;;;;;;21.30;46.90;;;;;;1652232;72;1128;-61
2021/12/30 06:43:42;;;;;;;;;;;21.40;46.90;;;;;;1652281;72;806;-62
2021/12/30 06:45:44;;;;;;;;;;;21.30;46.90;;;;;;1652206;72;794;-60
2021/12/30 06:47:47;;;;;;;;;;;21.30;46.90;;;;;;1652239;72;735;-61
2021/12/30 06:49:49;;;;;;;;;;;21.40;46.90;;;;;;1652184;72;1915;-61
2021/12/30 06:51:51;;;;;;;;;;;21.40;46.90;;;;;;1652254;72;1154;-61
2021/12/30 06:53:57;;;;;;;;;;;21.40;46.90;;;;;;1652051;72;709;-61
2021/12/30 06:55:56;;;;;;;;;;;21.30;46.90;;;;;;1650076;72;1762;-61
2021/12/30 06:57:58;;;;;;;;;;;21.30;46.90;;;;;;1652228;72;702;-61
2021/12/30 07:00:00;;;;;;;;;;;21.30;47.00;;;;;;1652326;72;776;-61
2021/12/30 07:02:02;;;;;;;;;;;21.40;47.00;;;;;;1652237;72;1109;-62
2021/12/30 07:04:04;;;;;;;;;;;21.40;47.00;;;;;;1651342;72;777;-62
2021/12/30 07:06:07;;;;;;;;;;;21.40;46.90;;;;;;1641409;72;786;-63
2021/12/30 07:08:09;;;;;;;;;;;21.40;46.90;;;;;;1641431;72;777;-61
2021/12/30 07:10:11;;;;;;;;;;;21.40;47.00;;;;;;1641428;72;1935;-61
2021/12/30 07:12:12;;;;;;;;;;;21.30;46.90;;;;;;1641395;72;1115;-62
2021/12/30 07:14:14;;;;;;;;;;;21.40;47.00;;;;;;1641460;72;725;-64
2021/12/30 07:16:16;;;;;;;;;;;21.30;47.00;;;;;;1641379;72;723;-61
2021/12/30 07:18:18;;;;;;;;;;;21.30;47.00;;;;;;1641500;72;787;-61
2021/12/30 07:20:20;;;;;;;;;;;21.40;47.00;;;;;;1641390;72;784;-61
2021/12/30 07:22:22;;;;;;;;;;;21.40;47.00;;;;;;1641489;72;1113;-61
2021/12/30 07:24:24;;;;;;;;;;;21.30;47.00;;;;;;1641390;72;781;-61
2021/12/30 07:26:26;;;;;;;;;;;21.30;47.00;;;;;;1641384;72;662;-62
2021/12/30 07:28:27;;;;;;;;;;;21.40;47.00;;;;;;1641385;72;732;-63
2021/12/30 07:30:29;;;;;;;;;;;21.40;47.00;;;;;;1641340;72;1932;-61
2021/12/30 07:32:31;;;;;;;;;;;21.30;47.00;;;;;;1641474;72;1144;-61
2021/12/30 07:34:33;;;;;;;;;;;21.40;47.00;;;;;;1641292;72;846;-61
2021/12/30 07:36:35;;;;;;;;;;;21.40;47.00;;;;;;1641357;72;770;-61
2021/12/30 07:38:37;;;;;;;;;;;21.30;47.00;;;;;;1641496;72;689;-61
2021/12/30 07:40:39;;;;;;;;;;;21.40;46.90;;;;;;1641406;72;671;-61
2021/12/30 07:42:41;;;;;;;;;;;21.40;46.90;;;;;;1641480;72;1117;-61
2021/12/30 07:44:42;;;;;;;;;;;21.40;47.00;;;;;;1641335;72;778;-63
2021/12/30 07:46:44;;;;;;;;;;;21.30;47.00;;;;;;1641302;72;728;-61
2021/12/30 07:48:46;;;;;;;;;;;21.30;47.10;;;;;;1641565;72;718;-61
2021/12/30 07:50:50;;;;;;;;;;;21.40;47.00;;;;;;1641339;72;1931;-61
2021/12/30 07:52:53;;;;;;;;;;;21.30;47.00;;;;;;1641346;72;1169;-61
2021/12/30 07:54:55;;;;;;;;;;;21.30;47.10;;;;;;1641329;72;792;-61
2021/12/30 07:56:56;;;;;;;;;;;21.30;47.00;;;;;;1641474;72;769;-61
2021/12/30 07:58:58;;;;;;;;;;;21.40;47.00;;;;;;1641520;72;744;-61
2021/12/30 08:01:00;;;;;;;;;;;21.30;47.00;;;;;;1641330;72;726;-61
2021/12/30 08:03:02;;;;;;;;;;;21.30;47.00;;;;;;1641290;72;1097;-61
2021/12/30 08:05:04;;;;;;;;;;;21.40;47.00;;;;;;1641359;72;772;-62
2021/12/30 08:07:06;;;;;;;;;;;21.40;47.00;;;;;;1641338;72;755;-61
2021/12/30 08:09:08;;;;;;;;;;;21.40;47.00;;;;;;1641409;72;787;-62
2021/12/30 08:11:10;;;;;;;;;;;21.40;47.10;;;;;;1641281;72;1933;-64
2021/12/30 08:13:12;;;;;;;;;;;21.30;47.00;;;;;;1641391;72;724;-61
2021/12/30 08:15:14;;;;;;;;;;;21.40;47.00;;;;;;1641321;72;697;-62
2021/12/30 08:17:16;;;;;;;;;;;21.30;47.10;;;;;;1641450;72;644;-61
2021/12/30 08:19:18;;;;;;;;;;;21.40;47.00;;;;;;1641419;72;707;-61
2021/12/30 08:21:23;;;;;;;;;;;21.40;47.00;;;;;;1641393;72;1121;-61
2021/12/30 08:23:25;;;;;;;;;;;21.40;46.90;;;;;;1641460;72;643;-61
2021/12/30 08:25:26;;;;;;;;;;;21.40;47.00;;;;;;1641392;72;715;-61
2021/12/30 08:27:28;;;;;;;;;;;21.40;47.00;;;;;;1641386;72;689;-61
2021/12/30 08:29:31;;;;;;;;;;;21.40;47.00;;;;;;1641399;72;781;-62
2021/12/30 08:31:34;;;;;;;;;;;21.40;47.00;;;;;;1641243;72;1877;-62
2021/12/30 08:33:36;;;;;;;;;;;21.40;47.00;;;;;;1641385;72;760;-63
2021/12/30 08:35:38;;;;;;;;;;;21.40;47.00;;;;;;1641368;72;735;-61
2021/12/30 08:37:40;;;;;;;;;;;21.40;47.00;;;;;;1641179;72;799;-61
2021/12/30 08:39:42;;;;;;;;;;;21.40;47.00;;;;;;1641368;72;729;-61
2021/12/30 08:41:44;;;;;;;;;;;21.40;47.00;;;;;;1641251;72;1057;-61
2021/12/30 08:43:46;;;;;;;;;;;21.40;47.00;;;;;;1641322;71;763;-61
2021/12/30 08:45:48;;;;;;;;;;;21.30;47.10;;;;;;1641393;72;663;-61
2021/12/30 08:47:50;;;;;;;;;;;21.40;47.00;;;;;;1641134;72;801;-61
2021/12/30 08:49:53;;;;;;;;;;;21.40;47.00;;;;;;1641471;72;690;-61
2021/12/30 08:51:55;;;;;;;;;;;21.40;47.10;;;;;;1641184;72;1889;-61
2021/12/30 08:53:57;;;;;;;;;;;21.40;47.10;;;;;;1641483;72;780;-63
2021/12/30 08:55:59;;;;;;;;;;;21.40;47.10;;;;;;1641398;72;767;-61
2021/12/30 08:58:01;;;;;;;;;;;21.40;47.10;;;;;;1641402;72;722;-61
2021/12/30 09:00:03;;;;;;;;;;;21.40;47.10;;;;;;1641532;72;793;-61
2021/12/30 09:02:05;;;;;;;;;;;21.40;47.10;;;;;;1641334;72;1109;-61
2021/12/30 09:04:07;;;;;;;;;;;21.30;47.10;;;;;;1642228;72;744;-61
2021/12/30 09:06:09;;;;;;;;;;;21.40;47.10;;;;;;1652030;72;785;-61
2021/12/30 09:08:11;;;;;;;;;;;21.40;47.10;;;;;;1652071;72;798;-61
2021/12/30 09:10:13;;;;;;;;;;;21.40;47.10;;;;;;1652076;72;1946;-61
2021/12/30 09:12:16;;;;;;;;;;;21.40;47.10;;;;;;1652017;72;1135;-62
2021/12/30 09:14:18;;;;;;;;;;;21.40;47.10;;;;;;1652110;72;823;-61
2021/12/30 09:16:19;;;;;;;;;;;21.40;47.10;;;;;;1652159;72;789;-61
2021/12/30 09:18:23;;;;;;;;;;;21.40;47.00;;;;;;1652230;72;771;-61
2021/12/30 09:20:25;;;;;;;;;;;21.40;47.10;;;;;;1652102;72;2009;-61
2021/12/30 09:22:27;;;;;;;;;;;21.40;47.00;;;;;;1652100;72;1128;-61
2021/12/30 09:24:29;;;;;;;;;;;21.40;47.10;;;;;;1652352;72;778;-63
2021/12/30 09:26:31;;;;;;;;;;;21.40;47.00;;;;;;1652226;72;783;-61
2021/12/30 09:28:33;;;;;;;;;;;21.40;47.10;;;;;;1652277;72;773;-61
2021/12/30 09:30:34;;;;;;;;;;;21.30;47.10;;;;;;1652262;72;1948;-61
2021/12/30 09:32:36;;;;;;;;;;;21.40;47.10;;;;;;1652158;72;1089;-61
2021/12/30 09:34:39;;;;;;;;;;;21.40;47.10;;;;;;1652173;72;692;-61
2021/12/30 09:36:40;;;;;;;;;;;21.50;47.20;;;;;;1652134;72;726;-62
2021/12/30 09:38:42;;;;;;;;;;;21.40;47.10;;;;;;1652131;72;780;-61
2021/12/30 09:40:44;;;;;;;;;;;21.40;47.10;;;;;;1652371;72;772;-62
2021/12/30 09:42:49;;;;;;;;;;;21.40;47.10;;;;;;1652387;72;1117;-62
2021/12/30 09:44:51;;;;;;;;;;;21.40;47.10;;;;;;1652185;72;789;-61
2021/12/30 09:46:53;;;;;;;;;;;21.50;47.20;;;;;;1652194;72;737;-61
2021/12/30 09:48:57;;;;;;;;;;;21.40;47.10;;;;;;1652134;72;693;-61
2021/12/30 09:50:59;;;;;;;;;;;21.40;47.10;;;;;;1652143;72;1908;-63
2021/12/30 09:53:01;;;;;;;;;;;21.40;47.10;;;;;;1652299;72;1085;-61
2021/12/30 09:55:03;;;;;;;;;;;21.40;47.10;;;;;;1651983;72;785;-61
2021/12/30 09:57:04;;;;;;;;;;;21.40;47.10;;;;;;1652240;72;759;-61
2021/12/30 09:59:07;;;;;;;;;;;21.40;47.10;;;;;;1652287;72;773;-61
2021/12/30 10:01:09;;;;;;;;;;;21.40;47.10;;;;;;1652208;72;764;-61
2021/12/30 10:03:11;;;;;;;;;;;21.40;47.10;;;;;;1652238;72;820;-60
2021/12/30 10:05:14;;;;;;;;;;;21.40;47.10;;;;;;1634847;72;775;-61
2021/12/30 10:07:20;;;;;;;;;;;21.40;47.10;;;;;;1625229;73;706;-61
2021/12/30 10:09:29;;;;;;;;;;;21.40;47.20;;;;;;1625204;72;726;-63
2021/12/30 10:11:25;;;;;;;;;;;21.40;47.10;;;;;;1624353;72;1924;-61
2021/12/30 10:13:31;;;;;;;;;;;21.40;47.10;;;;;;1625251;73;717;-61
2021/12/30 10:15:35;;;;;;;;;;;21.40;47.10;;;;;;1625189;73;721;-61
2021/12/30 10:17:37;;;;;;;;;;;21.40;47.10;;;;;;1624779;72;1094;-61
2021/12/30 10:19:39;;;;;;;;;;;21.40;47.10;;;;;;1625243;73;726;-61
2021/12/30 10:21:41;;;;;;;;;;;21.40;47.10;;;;;;1625352;73;1107;-62
2021/12/30 10:23:44;;;;;;;;;;;21.40;47.10;;;;;;1625281;73;781;-62
2021/12/30 10:25:47;;;;;;;;;;;21.40;47.10;;;;;;1625159;72;782;-61
2021/12/30 10:27:52;;;;;;;;;;;21.40;47.10;;;;;;1625235;73;781;-63
2021/12/30 10:29:54;;;;;;;;;;;21.40;47.10;;;;;;1625137;73;1095;-61
2021/12/30 10:31:55;;;;;;;;;;;21.40;47.10;;;;;;1625177;73;1935;-61
2021/12/30 10:34:04;;;;;;;;;;;21.40;47.10;;;;;;1625288;73;546;-62
2021/12/30 10:36:08;;;;;;;;;;;21.40;47.10;;;;;;1625111;73;691;-61
2021/12/30 10:38:11;;;;;;;;;;;21.40;47.10;;;;;;1624681;72;1851;-60
2021/12/30 10:40:32;;;;;;;;;;;21.40;47.10;;;;;;1625176;73;738;-61
2021/12/30 10:42:34;;;;;;;;;;;21.50;47.30;;;;;;1613760;70;2012;-64
2021/12/30 10:44:52;;;;;;;;;;;21.40;47.20;;;;;;1608912;73;831;-64
2021/12/30 10:46:54;;;;;;;;;;;21.40;47.20;;;;;;1595524;74;569;-66
2021/12/30 10:48:57;;;;;;;;;;;21.40;47.20;;;;;;1595640;74;717;-64
2021/12/30 10:51:10;;;;;;;;;;;21.40;47.20;;;;;;1595565;74;1905;-64
2021/12/30 10:53:11;;;;;;;;;;;21.40;47.30;;;;;;1574483;74;1697;-65
2021/12/30 10:55:14;;;;;;;;;;;21.40;47.30;;;;;;1568850;74;774;-65
2021/12/30 10:57:16;;;;;;;;;;;21.40;47.20;;;;;;1572805;75;637;-65
2021/12/30 10:59:21;;;;;;;;;;;21.40;47.30;;;;;;1584393;75;762;-65
2021/12/30 11:01:25;;;;;;;;;;;21.40;47.20;;;;;;1588218;75;820;-67
2021/12/30 11:03:28;;;;;;;;;;;21.50;47.30;;;;;;1588177;75;1078;-65
2021/12/30 11:05:29;;;;;;;;;;;21.40;47.20;;;;;;1588153;75;726;-65
2021/12/30 11:07:48;;;;;;;;;;;21.40;47.10;;;;;;1588300;75;734;-65
2021/12/30 11:09:50;;;;;;;;;;;21.40;47.20;;;;;;1588375;75;704;-67
2021/12/30 11:11:53;;;;;;;;;;;21.40;47.20;;;;;;1588175;75;1937;-67
2021/12/30 11:13:58;;;;;;;;;;;21.40;47.20;;;;;;1588228;75;702;-67
2021/12/30 11:16:03;;;;;;;;;;;21.40;47.20;;;;;;1588111;75;776;-66
2021/12/30 11:18:15;;;;;;;;;;;21.40;47.20;;;;;;1588237;75;702;-66
2021/12/30 11:20:15;;;;;;;;;;;21.40;47.20;;;;;;1587069;75;1505;-66
2021/12/30 11:22:18;;;;;;;;;;;21.40;47.20;;;;;;1588144;75;1103;-66
2021/12/30 11:24:20;;;;;;;;;;;21.50;47.30;;;;;;1588223;75;663;-66
2021/12/30 11:26:22;;;;;;;;;;;21.40;47.10;;;;;;1588135;75;819;-66
2021/12/30 11:28:24;;;;;;;;;;;21.40;47.20;;;;;;1588356;75;794;-66
2021/12/30 11:30:26;;;;;;;;;;;21.40;47.20;;;;;;1588337;75;792;-67
2021/12/30 11:32:28;;;;;;;;;;;21.40;47.10;;;;;;1588143;75;1954;-66
2021/12/30 11:34:30;;;;;;;;;;;21.40;47.10;;;;;;1588230;75;702;-66
2021/12/30 11:36:33;;;;;;;;;;;21.50;47.30;;;;;;1588109;75;731;-67
2021/12/30 11:38:35;;;;;;;;;;;21.40;47.20;;;;;;1588232;75;749;-67
2021/12/30 11:40:38;;;;;;;;;;;21.40;47.20;;;;;;1588252;75;691;-67
2021/12/30 11:42:40;;;;;;;;;;;21.40;47.20;;;;;;1560353;76;1082;-67
2021/12/30 11:44:45;;;;;;;;;;;21.40;47.10;;;;;;1588322;75;710;-67
2021/12/30 11:46:47;;;;;;;;;;;21.50;47.30;;;;;;1588155;75;697;-66
2021/12/30 11:48:56;;;;;;;;;;;21.40;47.20;;;;;;1588240;75;643;-66
2021/12/30 11:51:05;;;;;;;;;;;21.40;47.10;;;;;;1588248;75;724;-67
2021/12/30 11:53:11;;;;;;;;;;;21.40;47.20;;;;;;1588118;75;1916;-66
2021/12/30 11:55:31;;;;;;;;;;;21.50;47.30;;;;;;1588159;75;705;-66
2021/12/30 11:57:35;;;;;;;;;;;21.50;47.30;;;;;;1587837;75;717;-66
2021/12/30 11:59:39;;;;;;;;;;;21.40;47.20;;;;;;1560761;76;772;-67
2021/12/30 12:01:42;;;;;;;;;;;21.40;47.30;;;;;;1560614;76;1001;-66
2021/12/30 12:03:46;;;;;;;;;;;21.40;47.30;;;;;;1560630;76;731;-67
2021/12/30 12:05:48;;;;;;;;;;;21.40;47.30;;;;;;1560788;76;710;-67
2021/12/30 12:08:02;;;;;;;;;;;21.40;47.30;;;;;;1560721;76;662;-67
2021/12/30 12:10:06;;;;;;;;;;;21.40;47.30;;;;;;1560740;76;696;-67